Time;durP1;ratioP1;P1;durP2;ratioP2;P2;SDS_P1;SDS_P2;PMS_P1;PMS_P2;Temp;Humidity;BMP_temperature;BMP_pressure;BME280_temperature;BME280_humidity;BME280_pressure;Samples;Min_cycle;Max_cycle;Signal;HPM_P1;HPM_P2
2023/06/10 00:00:30;;;;;;;57.70;2.70;;;;;;;;;;5051047;28;20448;-67
2023/06/10 00:02:59;;;;;;;57.27;2.77;;;;;;;;;;5051229;28;21027;-67
2023/06/10 00:05:29;;;;;;;57.60;3.00;;;;;;;;;;5051099;28;20543;-67
2023/06/10 00:07:57;;;;;;;57.90;3.03;;;;;;;;;;5050510;28;20993;-67
2023/06/10 00:10:24;;;;;;;57.50;3.13;;;;;;;;;;5050465;28;20968;-67
2023/06/10 00:12:51;;;;;;;57.40;2.83;;;;;;;;;;5051364;28;20492;-67
2023/06/10 00:15:18;;;;;;;57.17;2.50;;;;;;;;;;5050922;28;20463;-67
2023/06/10 00:17:45;;;;;;;58.77;3.13;;;;;;;;;;5051144;28;20456;-67
2023/06/10 00:20:14;;;;;;;57.50;2.57;;;;;;;;;;5050660;28;20844;-67
2023/06/10 00:22:45;;;;;;;58.30;2.70;;;;;;;;;;5051160;28;20472;-67
2023/06/10 00:25:12;;;;;;;57.17;2.47;;;;;;;;;;5051191;28;20847;-67
2023/06/10 00:27:39;;;;;;;57.27;2.40;;;;;;;;;;5051317;28;20835;-67
2023/06/10 00:30:08;;;;;;;57.33;2.97;;;;;;;;;;5050366;28;20452;-67
2023/06/10 00:32:35;;;;;;;57.60;3.57;;;;;;;;;;5050655;28;20523;-67
2023/06/10 00:35:02;;;;;;;57.20;2.80;;;;;;;;;;5051113;28;20547;-67
2023/06/10 00:37:32;;;;;;;57.33;2.47;;;;;;;;;;5050825;28;20452;-67
2023/06/10 00:39:59;;;;;;;59.90;3.40;;;;;;;;;;5050324;28;20448;-67
2023/06/10 00:42:26;;;;;;;57.50;2.77;;;;;;;;;;5050640;28;20471;-67
2023/06/10 00:44:53;;;;;;;57.00;2.60;;;;;;;;;;5050981;28;20539;-67
2023/06/10 00:47:20;;;;;;;57.50;2.83;;;;;;;;;;5050561;28;20452;-67
2023/06/10 00:49:47;;;;;;;57.60;2.70;;;;;;;;;;5050191;28;20449;-67
2023/06/10 00:52:15;;;;;;;57.47;2.73;;;;;;;;;;5050752;28;20598;-67
2023/06/10 00:54:44;;;;;;;63.27;2.70;;;;;;;;;;5050953;28;20841;-67
2023/06/10 00:57:11;;;;;;;57.03;2.50;;;;;;;;;;5050597;28;20836;-67
2023/06/10 00:59:38;;;;;;;57.20;2.57;;;;;;;;;;5049938;28;20452;-67
2023/06/10 01:02:07;;;;;;;58.67;3.63;;;;;;;;;;5050554;28;20476;-67
2023/06/10 01:04:34;;;;;;;57.60;2.70;;;;;;;;;;5050940;28;20502;-67
2023/06/10 01:07:04;;;;;;;57.47;2.57;;;;;;;;;;5050626;28;20463;-67
2023/06/10 01:09:35;;;;;;;57.13;2.27;;;;;;;;;;5049965;28;20452;-66
2023/06/10 01:12:08;;;;;;;57.80;2.90;;;;;;;;;;5050409;28;20526;-66
2023/06/10 01:14:36;;;;;;;57.17;2.40;;;;;;;;;;5047616;28;20464;-66
2023/06/10 01:17:04;;;;;;;57.60;2.90;;;;;;;;;;5050682;28;20458;-66
2023/06/10 01:19:31;;;;;;;58.37;3.30;;;;;;;;;;5050568;28;20492;-66
2023/06/10 01:22:01;;;;;;;57.37;2.83;;;;;;;;;;5054258;28;20441;-67
2023/06/10 01:24:28;;;;;;;57.40;2.30;;;;;;;;;;5054358;28;20452;-67
2023/06/10 01:26:57;;;;;;;57.97;2.80;;;;;;;;;;5054368;28;21005;-67
2023/06/10 01:29:30;;;;;;;58.47;2.83;;;;;;;;;;5053276;28;20451;-67
2023/06/10 01:32:00;;;;;;;57.60;2.50;;;;;;;;;;5053948;28;20484;-67
2023/06/10 01:34:28;;;;;;;57.27;2.23;;;;;;;;;;5054287;28;20444;-67
2023/06/10 01:36:56;;;;;;;58.00;2.63;;;;;;;;;;5053771;28;20992;-67
2023/06/10 01:39:26;;;;;;;57.40;2.70;;;;;;;;;;5053500;28;20448;-67
2023/06/10 01:41:53;;;;;;;58.03;3.13;;;;;;;;;;5054201;28;20463;-67
2023/06/10 01:44:21;;;;;;;57.67;2.70;;;;;;;;;;5054035;28;20451;-67
2023/06/10 01:46:48;;;;;;;57.70;2.90;;;;;;;;;;5054016;28;20450;-67
2023/06/10 01:49:15;;;;;;;57.50;2.87;;;;;;;;;;5053083;28;20914;-67
2023/06/10 01:51:42;;;;;;;57.57;2.40;;;;;;;;;;5053698;28;20483;-67
2023/06/10 01:54:09;;;;;;;57.50;2.80;;;;;;;;;;5053893;28;20455;-67
2023/06/10 01:56:38;;;;;;;57.30;2.60;;;;;;;;;;5053480;28;20474;-67
2023/06/10 01:59:05;;;;;;;57.40;2.57;;;;;;;;;;5053166;28;20448;-67
2023/06/10 02:01:32;;;;;;;57.67;2.70;;;;;;;;;;5053520;28;20436;-67
2023/06/10 02:03:59;;;;;;;57.47;2.50;;;;;;;;;;5053319;28;20976;-67
2023/06/10 02:06:26;;;;;;;57.40;2.53;;;;;;;;;;5053634;28;20451;-67
2023/06/10 02:08:54;;;;;;;58.20;3.60;;;;;;;;;;5052913;28;20449;-67
2023/06/10 02:11:21;;;;;;;57.40;2.50;;;;;;;;;;5053341;28;20831;-67
2023/06/10 02:13:50;;;;;;;57.70;2.93;;;;;;;;;;5053319;28;20470;-67
2023/06/10 02:16:17;;;;;;;57.70;2.90;;;;;;;;;;5053539;28;20448;-67
2023/06/10 02:18:44;;;;;;;57.27;2.50;;;;;;;;;;5052642;28;20474;-67
2023/06/10 02:21:11;;;;;;;58.43;3.10;;;;;;;;;;5053262;28;20453;-67
2023/06/10 02:23:38;;;;;;;57.30;2.60;;;;;;;;;;5053296;28;20471;-67
2023/06/10 02:26:05;;;;;;;57.30;2.50;;;;;;;;;;5053193;28;20455;-67
2023/06/10 02:28:33;;;;;;;57.40;2.80;;;;;;;;;;5052634;28;20456;-67
2023/06/10 02:31:01;;;;;;;57.70;2.83;;;;;;;;;;5052160;28;20452;-67
2023/06/10 02:33:28;;;;;;;57.13;2.40;;;;;;;;;;5052910;28;21050;-67
2023/06/10 02:35:55;;;;;;;57.13;2.40;;;;;;;;;;5053170;28;20448;-67
2023/06/10 02:41:26;;;;;;;57.77;2.70;;;;;;;;;;5048905;28;20411;-67
2023/06/10 02:43:53;;;;;;;57.47;3.03;;;;;;;;;;5052728;28;20559;-67
2023/06/10 02:46:21;;;;;;;57.70;2.73;;;;;;;;;;5052782;28;20532;-67
2023/06/10 02:48:51;;;;;;;57.60;2.90;;;;;;;;;;5051886;28;20460;-67
2023/06/10 02:51:18;;;;;;;57.60;2.60;;;;;;;;;;5052631;28;20443;-67
2023/06/10 02:53:45;;;;;;;57.20;2.60;;;;;;;;;;5052448;28;20492;-67
2023/06/10 02:56:12;;;;;;;57.40;2.40;;;;;;;;;;5052134;28;20980;-67
2023/06/10 02:58:40;;;;;;;57.90;2.90;;;;;;;;;;5051588;28;20444;-67
2023/06/10 03:01:07;;;;;;;57.30;2.60;;;;;;;;;;5053008;28;20460;-68
2023/06/10 03:03:36;;;;;;;57.27;2.57;;;;;;;;;;5052500;28;20463;-67
2023/06/10 03:06:03;;;;;;;57.40;2.50;;;;;;;;;;5052226;28;20452;-67
2023/06/10 03:08:31;;;;;;;57.27;2.50;;;;;;;;;;5051692;28;20933;-67
2023/06/10 03:10:58;;;;;;;57.37;2.57;;;;;;;;;;5052302;28;20799;-67
2023/06/10 03:13:25;;;;;;;57.30;2.73;;;;;;;;;;5051896;28;20492;-67
2023/06/10 03:15:52;;;;;;;57.33;2.80;;;;;;;;;;5052131;28;20448;-68
2023/06/10 03:18:20;;;;;;;57.67;3.20;;;;;;;;;;5052213;28;20448;-68
2023/06/10 03:20:48;;;;;;;57.37;2.50;;;;;;;;;;5051465;28;20506;-67
2023/06/10 03:23:16;;;;;;;57.50;2.90;;;;;;;;;;5052033;28;20460;-67
2023/06/10 03:25:43;;;;;;;57.13;2.47;;;;;;;;;;5051979;28;20827;-68
2023/06/10 03:28:10;;;;;;;57.33;2.50;;;;;;;;;;5052227;28;20467;-67
2023/06/10 03:30:37;;;;;;;57.40;2.70;;;;;;;;;;5051251;28;20448;-67
2023/06/10 03:33:05;;;;;;;57.97;3.20;;;;;;;;;;5051837;28;20487;-67
2023/06/10 03:35:32;;;;;;;57.70;2.57;;;;;;;;;;5051546;28;20444;-67
2023/06/10 03:38:00;;;;;;;57.07;2.13;;;;;;;;;;5051958;28;20521;-67
2023/06/10 03:40:30;;;;;;;57.07;2.30;;;;;;;;;;5051004;28;20455;-67
2023/06/10 03:42:57;;;;;;;57.17;2.70;;;;;;;;;;5051426;28;20537;-67
2023/06/10 03:45:25;;;;;;;57.30;2.40;;;;;;;;;;5051416;28;20972;-67
2023/06/10 03:47:52;;;;;;;57.27;2.27;;;;;;;;;;5051817;28;20945;-67
2023/06/10 03:50:19;;;;;;;57.30;2.70;;;;;;;;;;5050947;28;20510;-67
2023/06/10 03:52:46;;;;;;;57.47;2.70;;;;;;;;;;5051543;28;20484;-67
2023/06/10 03:55:16;;;;;;;56.93;2.17;;;;;;;;;;5051672;28;20827;-67
2023/06/10 03:57:43;;;;;;;59.17;2.83;;;;;;;;;;5051430;28;20480;-67
2023/06/10 04:00:12;;;;;;;57.20;2.50;;;;;;;;;;5051002;28;20456;-67
2023/06/10 04:02:41;;;;;;;57.60;2.60;;;;;;;;;;5051328;28;20553;-67
2023/06/10 04:05:08;;;;;;;57.57;2.37;;;;;;;;;;5051418;28;20577;-67
2023/06/10 04:07:36;;;;;;;57.27;2.60;;;;;;;;;;5051329;28;20444;-68
2023/06/10 04:10:03;;;;;;;57.17;2.40;;;;;;;;;;5050483;28;20452;-67
2023/06/10 04:12:31;;;;;;;57.17;2.37;;;;;;;;;;5050994;28;20484;-67
2023/06/10 04:14:59;;;;;;;57.17;2.63;;;;;;;;;;5051234;28;20455;-67
2023/06/10 04:17:26;;;;;;;57.20;2.40;;;;;;;;;;5051097;28;20448;-67
2023/06/10 04:19:54;;;;;;;57.67;3.03;;;;;;;;;;5050581;28;20867;-67
2023/06/10 04:22:22;;;;;;;58.00;3.70;;;;;;;;;;5051283;28;20460;-67
2023/06/10 04:24:49;;;;;;;57.50;3.10;;;;;;;;;;5051445;28;20715;-67
2023/06/10 04:27:16;;;;;;;56.97;2.50;;;;;;;;;;5051357;28;20451;-67
2023/06/10 04:29:45;;;;;;;58.37;2.80;;;;;;;;;;5050493;28;20444;-67
2023/06/10 04:32:12;;;;;;;57.33;2.83;;;;;;;;;;5051016;28;20472;-67
2023/06/10 04:34:40;;;;;;;57.27;3.00;;;;;;;;;;5050999;28;20445;-67
2023/06/10 04:37:07;;;;;;;57.80;2.80;;;;;;;;;;5050945;28;20459;-67
2023/06/10 04:39:34;;;;;;;57.07;2.73;;;;;;;;;;5050745;28;20904;-67
2023/06/10 04:42:01;;;;;;;58.67;3.37;;;;;;;;;;5050712;28;20452;-67
2023/06/10 04:44:30;;;;;;;57.30;2.97;;;;;;;;;;5050899;28;20449;-68
2023/06/10 04:46:58;;;;;;;57.57;3.43;;;;;;;;;;5050981;28;20570;-68
2023/06/10 04:49:25;;;;;;;57.27;2.67;;;;;;;;;;5050229;28;20452;-67
2023/06/10 04:51:52;;;;;;;57.27;2.30;;;;;;;;;;5050686;28;20458;-68
2023/06/10 04:54:19;;;;;;;57.13;2.60;;;;;;;;;;5051138;28;20480;-68
2023/06/10 04:56:46;;;;;;;57.50;2.40;;;;;;;;;;5054547;28;20471;-67
2023/06/10 04:59:14;;;;;;;57.00;2.47;;;;;;;;;;5054283;28;20448;-67
2023/06/10 05:01:41;;;;;;;57.27;2.70;;;;;;;;;;5054572;28;20751;-67
2023/06/10 05:04:09;;;;;;;58.17;2.97;;;;;;;;;;5054905;28;20460;-67
2023/06/10 05:06:37;;;;;;;56.93;2.30;;;;;;;;;;5054499;28;20454;-67
2023/06/10 05:09:04;;;;;;;57.60;3.23;;;;;;;;;;5054052;28;20506;-67
2023/06/10 05:11:32;;;;;;;57.50;3.00;;;;;;;;;;5054555;28;20535;-67
2023/06/10 05:13:59;;;;;;;57.60;2.83;;;;;;;;;;5054560;28;20491;-67
2023/06/10 05:16:26;;;;;;;57.27;2.30;;;;;;;;;;5054400;28;20448;-67
2023/06/10 05:18:53;;;;;;;57.20;3.00;;;;;;;;;;5053772;28;20448;-67
2023/06/10 05:21:21;;;;;;;57.20;2.50;;;;;;;;;;5054426;28;20448;-67
2023/06/10 05:23:48;;;;;;;57.17;2.50;;;;;;;;;;5054619;28;20464;-67
2023/06/10 05:26:16;;;;;;;60.67;3.50;;;;;;;;;;5054266;28;20447;-67
2023/06/10 05:28:43;;;;;;;57.30;2.60;;;;;;;;;;5053752;28;20555;-68
2023/06/10 05:31:10;;;;;;;57.60;2.60;;;;;;;;;;5054232;28;20448;-68
2023/06/10 05:33:37;;;;;;;56.93;2.60;;;;;;;;;;5054094;28;20570;-67
2023/06/10 05:36:04;;;;;;;57.60;3.30;;;;;;;;;;5054135;28;20444;-67
2023/06/10 05:38:33;;;;;;;57.20;2.57;;;;;;;;;;5053613;28;20463;-67
2023/06/10 05:41:00;;;;;;;57.17;2.50;;;;;;;;;;5053874;28;20448;-68
2023/06/10 05:43:27;;;;;;;58.20;4.00;;;;;;;;;;5053700;28;20972;-67
2023/06/10 05:45:54;;;;;;;57.20;2.60;;;;;;;;;;5053839;28;21047;-68
2023/06/10 05:48:21;;;;;;;57.10;2.50;;;;;;;;;;5054097;28;20444;-67
2023/06/10 05:50:48;;;;;;;57.67;3.23;;;;;;;;;;5053276;28;20448;-68
2023/06/10 05:53:15;;;;;;;57.93;3.40;;;;;;;;;;5053364;28;20492;-65
2023/06/10 05:55:44;;;;;;;56.87;2.50;;;;;;;;;;5053769;28;20807;-65
2023/06/10 05:58:12;;;;;;;57.03;2.87;;;;;;;;;;5053779;28;20452;-65
2023/06/10 06:00:40;;;;;;;57.07;3.03;;;;;;;;;;5053177;28;20444;-66
2023/06/10 06:03:08;;;;;;;57.60;3.27;;;;;;;;;;5053819;28;21053;-66
2023/06/10 06:05:37;;;;;;;57.17;2.73;;;;;;;;;;5052888;28;20914;-66
2023/06/10 06:08:04;;;;;;;57.80;2.93;;;;;;;;;;5053114;28;20856;-66
2023/06/10 06:10:31;;;;;;;57.40;2.70;;;;;;;;;;5052801;28;20455;-66
2023/06/10 06:12:59;;;;;;;57.17;3.00;;;;;;;;;;5053357;28;20492;-66
2023/06/10 06:15:27;;;;;;;57.10;2.30;;;;;;;;;;5053309;28;20458;-66
2023/06/10 06:17:54;;;;;;;58.37;2.80;;;;;;;;;;5053201;28;20924;-66
2023/06/10 06:20:21;;;;;;;57.37;2.60;;;;;;;;;;5052812;28;20444;-66
2023/06/10 06:22:48;;;;;;;58.43;2.50;;;;;;;;;;5053361;28;20479;-66
2023/06/10 06:25:15;;;;;;;57.60;2.70;;;;;;;;;;5053035;28;20452;-66
2023/06/10 06:27:42;;;;;;;57.50;2.73;;;;;;;;;;5053044;28;20448;-66
2023/06/10 06:30:11;;;;;;;57.20;2.37;;;;;;;;;;5052519;28;20444;-66
2023/06/10 06:32:38;;;;;;;57.00;2.50;;;;;;;;;;5052739;28;20476;-66
2023/06/10 06:35:07;;;;;;;57.27;2.80;;;;;;;;;;5053126;28;20444;-66
2023/06/10 06:37:35;;;;;;;57.30;2.50;;;;;;;;;;5053302;28;20502;-66
2023/06/10 06:40:03;;;;;;;57.17;2.30;;;;;;;;;;5052143;28;20452;-66
2023/06/10 06:42:30;;;;;;;58.60;2.60;;;;;;;;;;5052895;28;20925;-66
2023/06/10 06:44:57;;;;;;;57.00;2.43;;;;;;;;;;5052878;28;20471;-66
2023/06/10 06:47:26;;;;;;;58.17;3.23;;;;;;;;;;5052726;28;20455;-66
2023/06/10 06:49:53;;;;;;;56.93;2.27;;;;;;;;;;5052427;28;20479;-66
2023/06/10 06:52:22;;;;;;;56.83;2.20;;;;;;;;;;5052647;28;20472;-66
2023/06/10 06:54:49;;;;;;;56.87;2.53;;;;;;;;;;5052485;28;20487;-67
2023/06/10 06:57:16;;;;;;;57.10;2.80;;;;;;;;;;5052600;28;21026;-67
2023/06/10 06:59:43;;;;;;;58.67;3.27;;;;;;;;;;5051695;28;20451;-67
2023/06/10 07:02:10;;;;;;;57.10;2.40;;;;;;;;;;5052440;28;20468;-67
2023/06/10 07:04:40;;;;;;;57.17;2.13;;;;;;;;;;5052619;28;20463;-67
2023/06/10 07:07:09;;;;;;;56.80;2.50;;;;;;;;;;5052572;28;20459;-68
2023/06/10 07:09:36;;;;;;;56.90;2.40;;;;;;;;;;5051689;28;20452;-67
2023/06/10 07:12:05;;;;;;;58.27;2.80;;;;;;;;;;5052198;28;20494;-67
2023/06/10 07:14:32;;;;;;;56.83;2.30;;;;;;;;;;5052062;28;21034;-67
2023/06/10 07:16:59;;;;;;;57.60;2.50;;;;;;;;;;5052244;28;20454;-67
2023/06/10 07:19:26;;;;;;;57.33;2.60;;;;;;;;;;5051610;28;20464;-67
2023/06/10 07:21:55;;;;;;;57.67;2.50;;;;;;;;;;5052198;28;20452;-67
2023/06/10 07:24:22;;;;;;;57.20;2.50;;;;;;;;;;5051935;28;20460;-67
2023/06/10 07:26:49;;;;;;;56.80;2.40;;;;;;;;;;5051701;28;20973;-67
2023/06/10 07:29:16;;;;;;;56.73;2.20;;;;;;;;;;5051121;28;20943;-67
2023/06/10 07:31:43;;;;;;;58.90;3.00;;;;;;;;;;5052082;28;20473;-67
2023/06/10 07:34:10;;;;;;;57.30;2.30;;;;;;;;;;5051810;28;20480;-67
2023/06/10 07:36:37;;;;;;;58.33;2.80;;;;;;;;;;5052255;28;20467;-67
2023/06/10 07:39:06;;;;;;;57.87;2.80;;;;;;;;;;5051317;28;20450;-67
2023/06/10 07:41:34;;;;;;;56.97;2.43;;;;;;;;;;5051452;28;20456;-67
2023/06/10 07:44:01;;;;;;;57.07;2.00;;;;;;;;;;5051741;28;20471;-67
2023/06/10 07:46:28;;;;;;;57.10;2.50;;;;;;;;;;5052022;28;20449;-67
2023/06/10 07:48:55;;;;;;;57.07;2.40;;;;;;;;;;5050840;28;20448;-67
2023/06/10 07:51:22;;;;;;;56.73;2.00;;;;;;;;;;5051182;28;20444;-67
2023/06/10 07:53:50;;;;;;;56.70;2.40;;;;;;;;;;5051736;28;20488;-68
2023/06/10 07:56:20;;;;;;;56.90;2.80;;;;;;;;;;5051733;28;20467;-67
2023/06/10 07:58:47;;;;;;;56.70;2.50;;;;;;;;;;5050873;28;20463;-68
2023/06/10 08:01:14;;;;;;;56.87;2.33;;;;;;;;;;5051364;28;20530;-68
2023/06/10 08:03:41;;;;;;;56.97;3.10;;;;;;;;;;5051316;28;20456;-68
2023/06/10 08:06:11;;;;;;;57.77;2.67;;;;;;;;;;5051394;28;20440;-68
2023/06/10 08:08:41;;;;;;;57.90;3.30;;;;;;;;;;5050362;28;20941;-67
2023/06/10 08:11:08;;;;;;;57.53;2.63;;;;;;;;;;5051410;28;20436;-68
2023/06/10 08:13:37;;;;;;;57.33;2.50;;;;;;;;;;5051490;28;20964;-68
2023/06/10 08:16:04;;;;;;;57.87;2.77;;;;;;;;;;5051672;28;20450;-67
2023/06/10 08:18:31;;;;;;;57.60;3.07;;;;;;;;;;5051030;28;20448;-67
2023/06/10 08:20:58;;;;;;;57.40;2.67;;;;;;;;;;5050877;28;20455;-68
2023/06/10 08:23:25;;;;;;;56.90;2.53;;;;;;;;;;5051292;28;20475;-68
2023/06/10 08:25:52;;;;;;;56.80;2.10;;;;;;;;;;5051000;28;20456;-68
2023/06/10 08:28:20;;;;;;;57.60;2.57;;;;;;;;;;5051146;28;20448;-68
2023/06/10 08:30:48;;;;;;;57.07;2.10;;;;;;;;;;5049936;28;20965;-68
2023/06/10 08:33:15;;;;;;;57.10;3.00;;;;;;;;;;5050829;28;20530;-68
2023/06/10 08:35:42;;;;;;;57.07;2.40;;;;;;;;;;5050850;28;20448;-65
2023/06/10 08:38:09;;;;;;;56.60;2.50;;;;;;;;;;5050943;28;20969;-65
2023/06/10 08:40:36;;;;;;;57.90;2.70;;;;;;;;;;5050500;28;20448;-65
2023/06/10 08:43:07;;;;;;;57.60;3.17;;;;;;;;;;5051373;28;20468;-65
2023/06/10 08:45:36;;;;;;;59.87;2.40;;;;;;;;;;5050799;28;20893;-65
2023/06/10 08:48:06;;;;;;;57.10;2.37;;;;;;;;;;5050689;28;20816;-65
2023/06/10 08:50:34;;;;;;;57.20;3.10;;;;;;;;;;5050386;28;20460;-65
2023/06/10 08:53:02;;;;;;;57.23;2.40;;;;;;;;;;5051318;28;21032;-65
2023/06/10 08:55:31;;;;;;;56.50;2.13;;;;;;;;;;5050702;28;20484;-65
2023/06/10 08:57:58;;;;;;;56.83;2.67;;;;;;;;;;5051119;28;20443;-65
2023/06/10 09:00:26;;;;;;;57.70;2.60;;;;;;;;;;5049933;28;20463;-65
2023/06/10 09:02:53;;;;;;;56.77;2.40;;;;;;;;;;5050607;28;20464;-65
2023/06/10 09:05:22;;;;;;;57.60;2.73;;;;;;;;;;5050866;28;20840;-69
2023/06/10 09:07:49;;;;;;;57.07;2.30;;;;;;;;;;5050607;28;20955;-68
2023/06/10 09:10:16;;;;;;;57.17;2.20;;;;;;;;;;5049972;28;20949;-68
2023/06/10 09:12:43;;;;;;;57.77;2.90;;;;;;;;;;5050893;28;20635;-68
2023/06/10 09:15:12;;;;;;;56.77;2.07;;;;;;;;;;5050566;28;21038;-68
2023/06/10 09:17:40;;;;;;;57.37;3.13;;;;;;;;;;5050687;28;20453;-69
2023/06/10 09:20:08;;;;;;;57.20;2.33;;;;;;;;;;5050222;28;20489;-68
2023/06/10 09:22:36;;;;;;;57.20;2.80;;;;;;;;;;5050707;28;20471;-68
2023/06/10 09:25:05;;;;;;;57.40;2.87;;;;;;;;;;5050642;28;20447;-69
2023/06/10 09:27:32;;;;;;;56.97;2.30;;;;;;;;;;5050383;28;20456;-68
2023/06/10 09:30:00;;;;;;;57.10;2.40;;;;;;;;;;5050064;28;20456;-69
2023/06/10 09:32:29;;;;;;;56.87;2.60;;;;;;;;;;5050208;28;21010;-68
2023/06/10 09:34:56;;;;;;;57.00;2.27;;;;;;;;;;5050371;28;20530;-68
2023/06/10 09:37:24;;;;;;;56.57;2.03;;;;;;;;;;5050286;28;20452;-68
2023/06/10 09:40:06;;;;;;;56.87;2.30;;;;;;;;;;5049706;28;20451;-68
2023/06/10 09:42:36;;;;;;;57.20;2.20;;;;;;;;;;5054020;28;20888;-68
2023/06/10 09:45:04;;;;;;;56.97;2.23;;;;;;;;;;5054020;28;20447;-69
2023/06/10 09:47:31;;;;;;;56.60;1.93;;;;;;;;;;5054053;28;20444;-68
2023/06/10 09:49:58;;;;;;;57.10;2.00;;;;;;;;;;5053537;28;20444;-69
2023/06/10 09:52:25;;;;;;;56.60;2.40;;;;;;;;;;5053647;28;20464;-68
2023/06/10 09:54:53;;;;;;;56.87;2.70;;;;;;;;;;5053438;28;20487;-66
2023/06/10 09:57:21;;;;;;;56.40;2.07;;;;;;;;;;5053577;28;20464;-66
2023/06/10 09:59:48;;;;;;;56.90;1.90;;;;;;;;;;5053168;28;20448;-66
2023/06/10 10:02:16;;;;;;;56.80;2.20;;;;;;;;;;5053504;28;20464;-66
2023/06/10 10:04:43;;;;;;;56.70;2.30;;;;;;;;;;5053872;28;20860;-66
2023/06/10 10:07:11;;;;;;;57.60;3.03;;;;;;;;;;5053593;28;20449;-66
2023/06/10 10:09:38;;;;;;;57.40;2.83;;;;;;;;;;5052837;28;20821;-66
2023/06/10 10:12:10;;;;;;;56.70;2.23;;;;;;;;;;5053504;28;20468;-66
2023/06/10 10:14:38;;;;;;;56.73;2.00;;;;;;;;;;5053581;28;20488;-66
2023/06/10 10:17:09;;;;;;;57.50;2.50;;;;;;;;;;5053528;28;20443;-66
2023/06/10 10:19:38;;;;;;;56.57;2.10;;;;;;;;;;5052911;28;20440;-66
2023/06/10 10:22:09;;;;;;;56.80;2.30;;;;;;;;;;5053326;28;20849;-66
2023/06/10 10:24:38;;;;;;;57.00;2.70;;;;;;;;;;5053238;28;20905;-66
2023/06/10 10:27:08;;;;;;;56.60;2.27;;;;;;;;;;5053243;28;20444;-66
2023/06/10 10:29:40;;;;;;;56.97;2.50;;;;;;;;;;5052560;28;20467;-66
2023/06/10 10:32:10;;;;;;;56.80;2.67;;;;;;;;;;5053228;28;20464;-66
2023/06/10 10:34:41;;;;;;;57.60;3.20;;;;;;;;;;5053402;28;20782;-66
2023/06/10 10:37:08;;;;;;;56.60;2.37;;;;;;;;;;5053062;28;20459;-66
2023/06/10 10:39:35;;;;;;;56.37;2.23;;;;;;;;;;5052336;28;20441;-66
2023/06/10 10:42:03;;;;;;;56.27;1.87;;;;;;;;;;5053311;28;20831;-66
2023/06/10 10:44:31;;;;;;;56.27;1.70;;;;;;;;;;5052767;28;20444;-66
2023/06/10 10:46:58;;;;;;;56.47;2.00;;;;;;;;;;5052506;28;20821;-67
2023/06/10 10:49:27;;;;;;;56.67;2.20;;;;;;;;;;5052239;28;20453;-67
2023/06/10 10:51:56;;;;;;;56.30;1.90;;;;;;;;;;5052361;28;20456;-67
2023/06/10 10:54:29;;;;;;;56.97;2.20;;;;;;;;;;5052640;28;20476;-67
2023/06/10 10:57:12;;;;;;;56.50;2.50;;;;;;;;;;5052623;28;20667;-67
2023/06/10 11:00:01;;;;;;;56.60;2.50;;;;;;;;;;5051875;28;20953;-67
2023/06/10 11:02:53;;;;;;;56.30;2.07;;;;;;;;;;5048109;28;20571;-67
2023/06/10 11:05:32;;;;;;;56.40;2.00;;;;;;;;;;5049012;28;20472;-67
2023/06/10 11:08:00;;;;;;;56.17;1.93;;;;;;;;;;5052631;28;20524;-68
2023/06/10 11:10:31;;;;;;;56.27;2.00;;;;;;;;;;5051919;28;20443;-67
2023/06/10 11:12:59;;;;;;;56.37;2.30;;;;;;;;;;5052140;28;20475;-67
2023/06/10 11:15:26;;;;;;;56.47;2.60;;;;;;;;;;5052031;28;20567;-67
2023/06/10 11:18:12;;;;;;;56.53;2.27;;;;;;;;;;5052092;28;20452;-67
2023/06/10 11:20:52;;;;;;;56.70;2.07;;;;;;;;;;5051558;28;20944;-67
2023/06/10 11:23:38;;;;;;;56.50;2.30;;;;;;;;;;5052291;28;20464;-67
2023/06/10 11:26:12;;;;;;;55.90;2.07;;;;;;;;;;5051859;28;20445;-67
2023/06/10 11:28:39;;;;;;;56.50;2.20;;;;;;;;;;5051136;28;20448;-67
2023/06/10 11:31:06;;;;;;;55.97;2.10;;;;;;;;;;5052169;28;20449;-67
2023/06/10 11:33:33;;;;;;;56.10;2.40;;;;;;;;;;5051985;28;20475;-67
2023/06/10 11:36:02;;;;;;;57.37;2.53;;;;;;;;;;5051804;28;20481;-67
2023/06/10 11:38:29;;;;;;;56.20;2.17;;;;;;;;;;5051975;28;20454;-67
2023/06/10 11:40:57;;;;;;;56.57;2.17;;;;;;;;;;5051393;28;20535;-67
2023/06/10 11:43:25;;;;;;;57.30;3.13;;;;;;;;;;5051805;28;20479;-67
2023/06/10 11:45:55;;;;;;;56.60;2.27;;;;;;;;;;5051609;28;20452;-67
2023/06/10 11:48:23;;;;;;;57.20;2.43;;;;;;;;;;5051705;28;20447;-67
2023/06/10 11:50:50;;;;;;;56.20;1.90;;;;;;;;;;5051201;28;20452;-67
2023/06/10 11:53:18;;;;;;;56.10;1.97;;;;;;;;;;5051383;28;20472;-67
2023/06/10 11:55:46;;;;;;;56.20;2.33;;;;;;;;;;5051316;28;20507;-67
2023/06/10 11:58:14;;;;;;;56.97;2.37;;;;;;;;;;5051419;28;20452;-68
2023/06/10 12:00:45;;;;;;;56.67;2.30;;;;;;;;;;5050890;28;20467;-68
2023/06/10 12:03:12;;;;;;;55.70;1.80;;;;;;;;;;5051253;28;20539;-68
2023/06/10 12:05:39;;;;;;;55.47;2.10;;;;;;;;;;5050835;28;20452;-67
2023/06/10 12:08:09;;;;;;;55.93;2.00;;;;;;;;;;5051123;28;20945;-68
2023/06/10 12:10:42;;;;;;;55.60;1.80;;;;;;;;;;5050688;28;20448;-68
2023/06/10 12:13:09;;;;;;;56.17;2.20;;;;;;;;;;5051275;28;20542;-68
2023/06/10 12:15:37;;;;;;;55.90;2.63;;;;;;;;;;5051265;28;20561;-68
2023/06/10 12:18:04;;;;;;;56.10;2.30;;;;;;;;;;5051041;28;20452;-68
2023/06/10 12:20:33;;;;;;;56.17;2.07;;;;;;;;;;5050111;28;20847;-68
2023/06/10 12:23:00;;;;;;;55.50;1.80;;;;;;;;;;5051263;28;20840;-68
2023/06/10 12:25:28;;;;;;;55.60;1.90;;;;;;;;;;5051332;28;20440;-68
2023/06/10 12:27:58;;;;;;;55.60;2.20;;;;;;;;;;5051218;28;20456;-68
2023/06/10 12:30:26;;;;;;;56.20;2.20;;;;;;;;;;5050593;28;20448;-68
2023/06/10 12:32:54;;;;;;;56.17;2.57;;;;;;;;;;5051228;28;20884;-68
2023/06/10 12:35:24;;;;;;;55.90;1.80;;;;;;;;;;5051127;28;20448;-67
2023/06/10 12:37:59;;;;;;;56.10;2.10;;;;;;;;;;5051098;28;20452;-67
2023/06/10 12:40:29;;;;;;;56.23;2.17;;;;;;;;;;5050499;28;20455;-67
2023/06/10 12:42:58;;;;;;;56.03;2.10;;;;;;;;;;5051008;28;20471;-67
2023/06/10 12:45:29;;;;;;;57.23;2.07;;;;;;;;;;5050716;28;20864;-68
2023/06/10 12:48:06;;;;;;;56.80;2.60;;;;;;;;;;5051002;28;20473;-67
2023/06/10 12:50:33;;;;;;;55.80;2.03;;;;;;;;;;5049984;28;20445;-67
2023/06/10 12:53:01;;;;;;;55.90;2.23;;;;;;;;;;5050868;28;20468;-67
2023/06/10 12:55:29;;;;;;;56.10;2.67;;;;;;;;;;5050731;28;20543;-68
2023/06/10 12:57:57;;;;;;;55.90;2.40;;;;;;;;;;5050956;28;20505;-68
2023/06/10 13:00:25;;;;;;;55.60;1.90;;;;;;;;;;5049896;28;20499;-68
2023/06/10 13:02:53;;;;;;;55.63;1.90;;;;;;;;;;5050761;28;20496;-68
2023/06/10 13:05:20;;;;;;;55.57;2.20;;;;;;;;;;5050680;28;20502;-67
2023/06/10 13:07:47;;;;;;;55.50;1.83;;;;;;;;;;5050581;28;20448;-68
2023/06/10 13:10:16;;;;;;;55.70;1.50;;;;;;;;;;5050087;28;20448;-67
2023/06/10 13:12:43;;;;;;;55.90;1.80;;;;;;;;;;5050718;28;20822;-67
2023/06/10 13:15:12;;;;;;;55.77;1.70;;;;;;;;;;5050979;28;20444;-67
2023/06/10 13:17:39;;;;;;;56.50;2.07;;;;;;;;;;5054458;28;20982;-67
2023/06/10 13:20:07;;;;;;;56.50;2.07;;;;;;;;;;5053630;28;20455;-67
2023/06/10 13:22:36;;;;;;;56.43;2.03;;;;;;;;;;5054232;28;20468;-67
2023/06/10 13:25:04;;;;;;;56.60;2.00;;;;;;;;;;5054139;28;20451;-67
2023/06/10 13:27:31;;;;;;;56.47;2.10;;;;;;;;;;5054450;28;20470;-68
2023/06/10 13:29:58;;;;;;;55.90;2.00;;;;;;;;;;5053810;28;20452;-68
2023/06/10 13:32:26;;;;;;;56.00;1.90;;;;;;;;;;5054063;28;20460;-68
2023/06/10 13:34:54;;;;;;;56.10;2.13;;;;;;;;;;5054535;28;20448;-69
2023/06/10 13:37:21;;;;;;;56.00;2.10;;;;;;;;;;5054125;28;20479;-66
2023/06/10 13:39:50;;;;;;;55.30;1.80;;;;;;;;;;5052991;28;20955;-66
2023/06/10 13:42:17;;;;;;;55.67;2.07;;;;;;;;;;5053781;28;20479;-66
2023/06/10 13:44:44;;;;;;;56.10;2.13;;;;;;;;;;5054337;28;20539;-66
2023/06/10 13:47:11;;;;;;;55.43;1.70;;;;;;;;;;5054090;28;20487;-66
2023/06/10 13:49:41;;;;;;;55.73;2.27;;;;;;;;;;5053108;28;20459;-65
2023/06/10 13:52:08;;;;;;;55.80;2.23;;;;;;;;;;5053883;28;20472;-66
2023/06/10 13:54:36;;;;;;;55.60;1.90;;;;;;;;;;5053716;28;20788;-66
2023/06/10 13:57:03;;;;;;;55.50;2.60;;;;;;;;;;5053464;28;20529;-66
2023/06/10 13:59:30;;;;;;;55.30;1.70;;;;;;;;;;5052960;28;20456;-66
2023/06/10 14:01:57;;;;;;;55.47;1.80;;;;;;;;;;5053814;28;20456;-66
2023/06/10 14:04:25;;;;;;;55.50;2.10;;;;;;;;;;5053578;28;21012;-67
2023/06/10 14:06:53;;;;;;;55.90;2.50;;;;;;;;;;5053418;28;20491;-67
2023/06/10 14:09:20;;;;;;;55.90;2.17;;;;;;;;;;5052815;28;20455;-67
2023/06/10 14:11:47;;;;;;;55.27;2.00;;;;;;;;;;5053474;28;20455;-67
2023/06/10 14:14:15;;;;;;;55.57;2.10;;;;;;;;;;5053435;28;20455;-68
2023/06/10 14:16:42;;;;;;;55.60;2.10;;;;;;;;;;5053329;28;20452;-67
2023/06/10 14:19:09;;;;;;;55.40;2.00;;;;;;;;;;5052661;28;20454;-67
2023/06/10 14:21:36;;;;;;;55.57;2.20;;;;;;;;;;5053402;28;20459;-67
2023/06/10 14:24:05;;;;;;;55.80;2.10;;;;;;;;;;5053288;28;20464;-67
2023/06/10 14:26:32;;;;;;;55.70;2.00;;;;;;;;;;5052653;28;21027;-67
2023/06/10 14:28:59;;;;;;;56.10;2.23;;;;;;;;;;5052120;28;20502;-67
2023/06/10 14:31:27;;;;;;;56.20;2.07;;;;;;;;;;5053168;28;20444;-67
2023/06/10 14:33:54;;;;;;;55.43;1.73;;;;;;;;;;5053008;28;20560;-67
2023/06/10 14:36:21;;;;;;;56.57;2.77;;;;;;;;;;5053258;28;20440;-67
2023/06/10 14:38:48;;;;;;;56.07;2.10;;;;;;;;;;5052357;28;20633;-67